Latest Weather Observations for Hobart

IDT60901

Issued at 5:31 pm EST Thursday 9 April 2020 (issued every 10 minutes, with the page automatically refreshed every 10 minutes)

About weather observations | Map of Hobart area stations | Latest observations for Hobart area | Other Formats
Station Details ID: 094029 Name: HOBART (ELLERSLIE ROAD) Lat: -42.89 Lon: 147.33 Height: 50.5 m
Data from the previous 72 hours. | See also: Recent months at Hobart
Date/Time
EST
Temp
°C
App
Temp
°C
Dew
Point
°C
Rel
Hum
%
Delta-T
°C
Wind Press
QNH
hPa
Press
MSL
hPa
Rain since
9am
mm
Dir  Spd
km/h
Gust
km/h
Spd
kts
Gust
kts
09/05:30pm 16.0 13.5 8.2 60 3.9 SSW 11 15 6 8 1022.3 1022.3 0.0
09/05:00pm 17.0 14.2 8.7 58 4.3 ESE 13 17 7 9 1022.4 1022.4 0.0
09/04:30pm 18.9 15.7 7.0 46 6.0 NW 13 19 7 10 1022.6 1022.6 0.0
09/04:00pm 19.8 15.9 6.9 43 6.5 NNW 17 22 9 12 1023.0 1023.0 0.0
09/03:30pm 19.7 16.5 6.8 43 6.5 N 13 20 7 11 1023.3 1023.3 0.0
09/03:00pm 20.0 16.8 6.7 42 6.7 N 13 24 7 13 1023.7 1023.7 0.0
09/02:30pm 19.2 14.7 7.0 45 6.2 NE 20 24 11 13 1024.0 1024.0 0.0
09/02:00pm 19.9 16.6 7.9 46 6.2 NNW 15 24 8 13 1024.6 1024.6 0.0
09/01:30pm 19.7 16.2 7.4 45 6.3 NNW 15 24 8 13 1025.2 1025.2 0.0
09/01:00pm 18.8 15.1 7.9 49 5.6 NNW 17 24 9 13 1025.7 1025.7 0.0
09/12:30pm 17.9 14.0 7.0 49 5.5 N 17 26 9 14 1026.2 1026.2 0.0
09/12:00pm 17.6 13.4 7.4 51 5.1 NNW 19 22 10 12 1027.0 1027.0 0.0
09/11:30am 17.2 13.9 8.1 55 4.6 NNW 15 28 8 15 1027.4 1027.4 0.0
09/11:00am 16.2 12.4 7.7 57 4.2 NNW 17 22 9 12 1027.8 1027.9 0.0
09/10:30am 15.1 11.6 7.4 60 3.8 N 15 20 8 11 1028.1 1028.2 0.0
09/10:00am 13.9 10.4 7.0 63 3.3 NNW 15 22 8 12 1028.5 1028.6 0.0
09/09:30am 12.2 8.6 6.7 69 2.6 NNW 15 20 8 11 1028.9 1029.0 0.0
09/09:00am 11.2 7.2 6.5 73 2.2 NNW 17 22 9 12 1029.0 1029.1 0.0
09/08:30am 9.2 4.4 5.8 79 1.6 NNW 20 24 11 13 1029.2 1029.3 0.0
09/08:00am 8.3 3.7 5.6 83 1.2 NW 19 26 10 14 1029.4 1029.5 0.0
09/07:30am 7.4 3.9 5.5 88 0.8 NW 13 20 7 11 1029.6 1029.7 0.0
09/07:00am 6.0 1.9 4.6 91 0.6 NW 15 20 8 11 1029.4 1029.5 0.0
09/06:30am 5.7 1.6 4.3 91 0.6 NW 15 19 8 10 1029.3 1029.4 0.0
09/06:00am 5.7 1.6 4.3 91 0.6 NW 15 20 8 11 1029.2 1029.3 0.0
09/05:30am 6.1 1.7 4.9 92 0.5 NW 17 22 9 12 1029.2 1029.3 0.0
09/05:00am 5.3 1.9 4.0 91 0.5 NW 11 17 6 9 1029.2 1029.3 0.0
09/04:30am 5.6 2.6 4.2 91 0.6 NW 9 15 5 8 1029.1 1029.2 0.0
09/04:00am 5.6 1.9 4.2 91 0.6 NW 13 17 7 9 1029.0 1029.1 0.0
09/03:30am 5.7 2.0 4.3 91 0.6 NW 13 17 7 9 1029.2 1029.3 0.0
09/03:00am 5.8 2.5 4.3 90 0.6 NW 11 17 6 9 1029.5 1029.6 0.0
09/02:30am 6.7 2.7 5.0 89 0.7 NW 15 20 8 11 1029.8 1029.9 0.0
09/02:00am 6.9 3.3 5.2 89 0.7 NW 13 20 7 11 1029.9 1030.0 0.0
09/01:30am 6.8 3.9 4.8 87 0.9 NW 9 13 5 7 1030.1 1030.2 0.0
09/01:00am 7.0 3.8 5.2 88 0.8 NNW 11 15 6 8 1030.3 1030.4 0.0
09/12:30am 6.6 3.7 4.8 88 0.8 NW 9 11 5 6 1030.4 1030.5 0.0
09/12:00am 6.8 4.5 4.8 87 0.9 WNW 6 9 3 5 1030.7 1030.7 0.0
 
Date/Time
EST
Temp
°C
App
Temp
°C
Dew
Point
°C
Rel
Hum
%
Delta-T
°C
Wind Press
QNH
hPa
Press
MSL
hPa
Rain since
9am
mm
Dir  Spd
km/h
Gust
km/h
Spd
kts
Gust
kts
08/11:30pm 7.1 6.0 4.9 86 1.0 CALM 0 0 0 0 1030.9 1030.9 0.0
08/11:00pm 7.2 4.7 5.0 86 1.0 WNW 7 7 4 4 1031.1 1031.1 0.0
08/10:30pm 7.7 5.5 5.2 84 1.1 WNW 6 7 3 4 1031.2 1031.2 0.0
08/10:00pm 7.7 4.1 5.0 83 1.2 WNW 13 15 7 8 1031.2 1031.2 0.0
08/09:30pm 8.1 4.5 5.0 81 1.4 WSW 13 19 7 10 1031.1 1031.1 0.0
08/09:00pm 8.5 5.0 5.3 80 1.4 W 13 19 7 10 1030.9 1030.9 0.0
08/08:30pm 8.9 5.4 5.3 78 1.6 WSW 13 15 7 8 1030.7 1030.7 0.0
08/08:00pm 9.2 5.7 5.6 78 1.6 WSW 13 17 7 9 1030.2 1030.3 0.0
08/07:30pm 9.2 5.7 5.6 78 1.6 WSW 13 17 7 9 1029.9 1030.0 0.0
08/07:00pm 9.4 5.9 5.6 77 1.7 WSW 13 17 7 9 1029.8 1029.9 0.0
08/06:30pm 9.9 6.9 5.9 76 1.8 WSW 11 15 6 8 1029.6 1029.7 0.0
08/06:00pm 11.0 8.3 5.7 70 2.4 SSW 9 13 5 7 1029.2 1029.3 0.0
08/05:30pm 11.7 8.2 5.6 66 2.8 SSE 13 17 7 9 1029.0 1029.1 0.0
08/05:00pm 12.1 8.6 5.5 64 3.0 SE 13 20 7 11 1028.8 1028.9 0.0
08/04:30pm 12.6 8.7 5.3 61 3.4 SE 15 19 8 10 1028.6 1028.7 0.0
08/04:00pm 12.7 8.3 4.7 58 3.6 SSE 17 20 9 11 1028.6 1028.7 0.0
08/03:30pm 13.2 9.2 5.1 58 3.8 SE 15 20 8 11 1028.6 1028.7 0.0
08/03:00pm 13.7 10.1 4.8 55 4.1 ESE 13 19 7 10 1028.5 1028.6 0.0
08/02:30pm 13.5 9.5 4.9 56 4.0 ESE 15 20 8 11 1028.5 1028.6 0.0
08/02:00pm 13.2 9.2 4.9 57 3.8 ESE 15 19 8 10 1028.5 1028.6 0.0
08/01:30pm 13.2 9.5 4.4 55 4.0 E 13 19 7 10 1028.5 1028.6 0.0
08/01:00pm 13.7 10.0 4.6 54 4.2 ESE 13 19 7 10 1028.7 1028.8 0.0
08/12:30pm 13.6 9.2 4.5 54 4.2 ESE 17 24 9 13 1028.8 1028.9 0.0
08/12:00pm 13.6 9.2 5.0 56 4.0 ESE 17 24 9 13 1028.9 1029.0 0.0
08/11:30am 13.3 9.6 4.2 54 4.2 SSE 13 20 7 11 1028.7 1028.8 0.0
08/11:00am 13.0 8.9 4.2 55 4.0 S 15 20 8 11 1028.9 1029.0 0.0
08/10:30am 12.7 9.9 5.1 60 3.5 S 9 17 5 9 1028.8 1028.9 0.0
08/10:00am 12.5 9.7 5.0 60 3.4 SE 9 17 5 9 1028.7 1028.8 0.0
08/09:30am 12.7 8.8 3.6 54 4.1 SW 13 19 7 10 1028.4 1028.5 0.0
08/09:00am 12.2 9.6 6.0 66 2.9 S 9 15 5 8 1028.2 1028.3 0.0
08/08:30am 11.5 9.5 7.0 74 2.2 SSW 7 13 4 7 1027.8 1027.9 0.0
08/08:00am 10.4 8.6 7.3 81 1.5 N 6 7 3 4 1027.4 1027.4 0.0
08/07:30am 9.4 7.5 6.8 84 1.2 NW 6 7 3 4 1026.9 1026.9 0.0
08/07:00am 9.0 7.0 6.4 84 1.2 WNW 6 7 3 4 1026.6 1026.6 0.0
08/06:30am 8.9 6.3 6.3 84 1.2 NW 9 11 5 6 1026.4 1026.4 0.0
08/06:00am 8.9 6.7 6.0 82 1.3 W 7 9 4 5 1026.0 1026.0 0.0
08/05:30am 9.2 7.2 6.1 81 1.4 SW 6 7 3 4 1025.7 1025.7 0.0
08/05:00am 8.9 6.7 6.0 82 1.3 WNW 7 11 4 6 1025.4 1025.4 0.0
08/04:30am 9.0 6.4 5.9 81 1.4 WSW 9 13 5 7 1025.0 1025.0 0.0
08/04:00am 9.8 7.6 6.2 78 1.7 SW 7 15 4 8 1024.8 1024.8 0.0
08/03:30am 10.1 8.5 6.3 77 1.8 ESE 4 7 2 4 1024.4 1024.4 0.0
08/03:00am 10.0 7.0 6.2 77 1.8 WSW 11 15 6 8 1024.2 1024.2 0.0
08/02:30am 10.4 7.0 6.0 74 2.0 SW 13 20 7 11 1024.2 1024.2 0.0
08/02:00am 10.2 6.1 6.4 77 1.8 SW 17 22 9 12 1024.2 1024.2 0.0
08/01:30am 9.7 6.5 7.0 83 1.3 SSW 13 19 7 10 1024.2 1024.2 0.0
08/01:00am 10.1 7.4 7.2 82 1.4 SSW 11 15 6 8 1024.0 1024.0 0.0
08/12:30am 10.8 7.8 7.5 80 1.6 SSW 13 15 7 8 1023.9 1023.9 0.0
08/12:00am 11.1 8.1 7.8 80 1.6 S 13 20 7 11 1023.9 1023.9 0.0
 
Date/Time
EST
Temp
°C
App
Temp
°C
Dew
Point
°C
Rel
Hum
%
Delta-T
°C
Wind Press
QNH
hPa
Press
MSL
hPa
Rain since
9am
mm
Dir  Spd
km/h
Gust
km/h
Spd
kts
Gust
kts
07/11:30pm 11.2 7.9 8.2 82 1.5 SSE 15 19 8 10 1023.7 1023.7 0.0
07/11:00pm 11.1 7.0 8.7 85 1.2 SSW 20 30 11 16 1023.4 1023.4 0.0
07/10:30pm 11.1 7.2 9.4 89 0.9 SSW 20 30 11 16 1023.4 1023.4 0.0
07/10:00pm 11.5 9.5 10.1 91 0.7 S 11 19 6 10 1023.2 1023.2 0.0
07/09:30pm 12.1 8.2 9.5 84 1.3 S 20 28 11 15 1022.8 1022.8 0.0
07/09:00pm 12.6 8.9 9.4 81 1.6 SSW 19 28 10 15 1022.4 1022.4 0.0
07/08:30pm 13.1 9.2 8.6 74 2.3 S 19 28 10 15 1022.1 1022.1 0.0
07/08:00pm 13.7 10.7 7.5 66 3.0 SSW 13 28 7 15 1021.7 1021.7 0.0
07/07:30pm 14.1 11.4 7.2 63 3.4 SSW 11 17 6 9 1021.3 1021.3 0.0
07/07:00pm 14.0 11.0 7.8 66 3.1 WSW 13 19 7 10 1021.1 1021.1 0.0
07/06:30pm 14.2 11.5 7.3 63 3.4 WSW 11 15 6 8 1020.6 1020.6 0.0
07/06:00pm 14.7 11.3 7.5 62 3.6 SSW 15 28 8 15 1020.4 1020.4 0.0
07/05:30pm 15.2 12.5 7.3 59 3.9 SSW 11 17 6 9 1020.2 1020.2 0.0
07/05:00pm 15.7 13.5 7.7 59 4.0 NW 9 15 5 8 1019.9 1019.9 0.0
07/04:30pm 16.0 13.7 7.5 57 4.2 NW 9 15 5 8 1019.9 1019.9 0.0
07/04:00pm 16.6 14.0 7.8 56 4.4 NW 11 17 6 9 1019.9 1019.9 0.0
07/03:30pm 16.5 12.8 8.0 57 4.3 NW 17 22 9 12 1020.0 1020.0 0.0
07/03:00pm 16.8 13.0 7.7 55 4.6 WNW 17 24 9 13 1020.0 1020.0 0.0
07/02:30pm 17.1 13.3 7.7 54 4.7 NW 17 26 9 14 1020.1 1020.1 0.0
07/02:00pm 16.8 13.3 7.2 53 4.8 NNW 15 24 8 13 1020.2 1020.2 0.0
07/01:30pm 16.5 13.1 7.7 56 4.4 NW 15 22 8 12 1020.5 1020.5 0.0
07/01:00pm 16.2 11.8 7.4 56 4.4 NW 20 30 11 16 1020.8 1020.8 0.0
07/12:30pm 16.2 11.7 6.9 54 4.6 NW 20 28 11 15 1021.0 1021.0 0.0
07/12:00pm 17.0 13.8 6.8 51 5.0 N 13 20 7 11 1021.2 1021.2 0.0
07/11:30am 16.8 14.0 6.9 52 4.9 NNE 11 17 6 9 1021.3 1021.3 0.0
07/11:00am 16.0 13.5 6.4 53 4.7 NNE 9 15 5 8 1021.6 1021.6 0.0
07/10:30am 15.9 13.3 6.1 52 4.8 N 9 13 5 7 1021.7 1021.7 0.0
07/10:00am 14.6 12.5 6.7 59 3.8 N 7 15 4 8 1021.9 1021.9 0.0
07/09:30am 13.2 9.8 6.1 62 3.4 NNW 13 19 7 10 1022.0 1022.0 0.0
07/09:00am 12.0 7.8 5.6 65 3.0 NNW 17 20 9 11 1022.1 1022.1 0.2
07/08:30am 10.3 5.6 5.3 71 2.3 NNW 19 26 10 14 1022.0 1022.0 0.2
07/08:00am 9.4 5.4 5.0 74 2.0 NNW 15 20 8 11 1021.9 1021.9 0.2
07/07:30am 7.8 4.9 4.9 82 1.3 WNW 9 15 5 8 1022.0 1022.0 0.2
07/07:00am 6.1 3.0 3.8 85 1.0 W 9 13 5 7 1022.0 1022.0 0.2
07/06:30am 5.7 2.9 3.2 84 1.0 WNW 7 9 4 5 1021.7 1021.7 0.2
07/06:00am 5.8 2.7 3.5 85 1.0 W 9 13 5 7 1021.6 1021.6 0.2
07/05:30am 5.9 2.8 3.4 84 1.0 WNW 9 11 5 6 1021.4 1021.4 0.2
07/05:00am 6.6 3.5 3.8 82 1.2 WNW 9 13 5 7 1021.2 1021.2 0.2
07/04:30am 6.3 3.2 3.6 83 1.1 W 9 11 5 6 1021.1 1021.1 0.2
07/04:00am 6.2 3.5 3.5 83 1.1 WNW 7 13 4 7 1021.0 1021.0 0.2
07/03:30am 6.2 3.1 3.4 82 1.2 WSW 9 13 5 7 1021.0 1021.0 0.2
07/03:00am 6.6 2.8 3.8 82 1.2 WSW 13 15 7 8 1021.1 1021.1 0.2
07/02:30am 6.6 3.5 3.8 82 1.2 WSW 9 13 5 7 1021.2 1021.2 0.2
07/02:00am 7.0 3.9 3.8 80 1.4 WSW 9 11 5 6 1021.3 1021.3 0.2
07/01:30am 7.1 4.5 4.1 81 1.3 W 7 11 4 6 1021.3 1021.3 0.2
07/01:00am 7.1 4.5 4.2 82 1.2 NW 7 15 4 8 1021.3 1021.3 0.2
07/12:30am 7.7 5.0 3.9 77 1.6 WSW 7 11 4 6 1021.4 1021.4 0.2
07/12:00am 8.0 6.0 4.4 78 1.6 WNW 4 11 2 6 1021.4 1021.4 0.2
 
Date/Time
EST
Temp
°C
App
Temp
°C
Dew
Point
°C
Rel
Hum
%
Delta-T
°C
Wind Press
QNH
hPa
Press
MSL
hPa
Rain since
9am
mm
Dir  Spd
km/h
Gust
km/h
Spd
kts
Gust
kts
06/11:30pm 8.0 6.4 4.4 78 1.6 W 2 9 1 5 1021.3 1021.3 0.2
06/11:00pm 8.3 5.4 4.5 77 1.7 W 9 13 5 7 1021.3 1021.3 0.2
06/10:30pm 8.8 5.9 4.4 74 1.9 WSW 9 13 5 7 1021.2 1021.2 0.2
06/10:00pm 9.7 7.3 4.5 70 2.3 W 6 11 3 6 1021.1 1021.1 0.2
06/09:30pm 10.8 9.2 4.3 64 2.9 SW 2 7 1 4 1021.0 1021.0 0.2
06/09:00pm 11.5 7.8 4.3 61 3.2 N 13 22 7 12 1020.7 1020.7 0.2
06/08:30pm 11.6 8.7 4.6 62 3.2 NNE 9 19 5 10 1020.3 1020.3 0.2
06/08:00pm 11.1 8.5 4.3 63 3.0 ESE 7 15 4 8 1020.1 1020.1 0.2
06/07:30pm 11.2 8.5 3.7 60 3.3 N 7 11 4 6 1019.4 1019.4 0.2
06/07:00pm 11.9 8.5 3.9 58 3.6 SE 11 17 6 9 1018.9 1018.9 0.2
06/06:30pm 11.9 8.8 3.7 57 3.7 SE 9 11 5 6 1018.7 1018.7 0.2
06/06:00pm 12.2 8.4 3.7 56 3.8 SSW 13 26 7 14 1018.3 1018.3 0.2

Latest Capital City Observations: Canberra | Sydney | Melbourne | Brisbane | Adelaide | Perth | Hobart | Darwin

Other formats

Comma delimited format used in spreadsheet applications
http://www.bom.gov.au/fwo/IDT60901/IDT60901.94970.axf

JavaScript Object Notation format (JSON) in row-major order
http://www.bom.gov.au/fwo/IDT60901/IDT60901.94970.json

Data quality

Most of these data are generated automatically and are frequently updated. Quality checks on data are not normally performed. It is possible for incorrect values to appear. Refer to information at About Latest Weather Observations and please check the disclaimer before using these data.